sensor_id;sensor_type;location;lat;lon;timestamp;temperature;humidity
62154;DHT22;48140;45.486;9.226;2023-04-06T00:00:31;8.20;43.30
62154;DHT22;48140;45.486;9.226;2023-04-06T00:02:57;8.20;43.30
62154;DHT22;48140;45.486;9.226;2023-04-06T00:05:23;8.20;43.20
62154;DHT22;48140;45.486;9.226;2023-04-06T00:07:49;8.20;43.40
62154;DHT22;48140;45.486;9.226;2023-04-06T00:10:15;8.20;43.10
62154;DHT22;48140;45.486;9.226;2023-04-06T00:12:41;8.10;42.90
62154;DHT22;48140;45.486;9.226;2023-04-06T00:15:07;8.10;43.10
62154;DHT22;48140;45.486;9.226;2023-04-06T00:17:33;8.10;43.30
62154;DHT22;48140;45.486;9.226;2023-04-06T00:19:59;8.10;43.50
62154;DHT22;48140;45.486;9.226;2023-04-06T00:22:24;8.10;43.60
62154;DHT22;48140;45.486;9.226;2023-04-06T00:24:50;8.10;43.40
62154;DHT22;48140;45.486;9.226;2023-04-06T00:27:16;8.10;43.70
62154;DHT22;48140;45.486;9.226;2023-04-06T00:29:43;8.00;43.70
62154;DHT22;48140;45.486;9.226;2023-04-06T00:32:09;8.00;43.80
62154;DHT22;48140;45.486;9.226;2023-04-06T00:34:34;8.00;43.80
62154;DHT22;48140;45.486;9.226;2023-04-06T00:37:00;8.00;44.10
62154;DHT22;48140;45.486;9.226;2023-04-06T00:39:26;8.00;44.10
62154;DHT22;48140;45.486;9.226;2023-04-06T00:41:52;8.00;44.40
62154;DHT22;48140;45.486;9.226;2023-04-06T00:44:19;7.90;44.40
62154;DHT22;48140;45.486;9.226;2023-04-06T00:46:45;7.90;44.60
62154;DHT22;48140;45.486;9.226;2023-04-06T00:49:11;7.80;44.70
62154;DHT22;48140;45.486;9.226;2023-04-06T00:51:36;7.80;44.90
62154;DHT22;48140;45.486;9.226;2023-04-06T00:54:02;7.80;45.00
62154;DHT22;48140;45.486;9.226;2023-04-06T00:56:28;7.80;45.40
62154;DHT22;48140;45.486;9.226;2023-04-06T00:58:54;7.70;45.40
62154;DHT22;48140;45.486;9.226;2023-04-06T01:01:19;7.70;45.50
62154;DHT22;48140;45.486;9.226;2023-04-06T01:03:45;7.80;45.80
62154;DHT22;48140;45.486;9.226;2023-04-06T01:06:14;7.60;46.00
62154;DHT22;48140;45.486;9.226;2023-04-06T01:08:40;7.70;46.20
62154;DHT22;48140;45.486;9.226;2023-04-06T01:11:05;7.60;46.50
62154;DHT22;48140;45.486;9.226;2023-04-06T01:13:31;7.60;46.90
62154;DHT22;48140;45.486;9.226;2023-04-06T01:15:57;7.50;46.50
62154;DHT22;48140;45.486;9.226;2023-04-06T01:18:26;7.50;46.90
62154;DHT22;48140;45.486;9.226;2023-04-06T01:20:52;7.50;47.00
62154;DHT22;48140;45.486;9.226;2023-04-06T01:23:18;7.50;46.90
62154;DHT22;48140;45.486;9.226;2023-04-06T01:25:44;7.50;47.20
62154;DHT22;48140;45.486;9.226;2023-04-06T01:28:09;7.50;47.40
62154;DHT22;48140;45.486;9.226;2023-04-06T01:30:35;7.50;47.40
62154;DHT22;48140;45.486;9.226;2023-04-06T01:33:01;7.40;47.60
62154;DHT22;48140;45.486;9.226;2023-04-06T01:35:27;7.40;47.60
62154;DHT22;48140;45.486;9.226;2023-04-06T01:37:53;7.40;47.80
62154;DHT22;48140;45.486;9.226;2023-04-06T01:40:19;7.40;47.90
62154;DHT22;48140;45.486;9.226;2023-04-06T01:42:45;7.40;48.00
62154;DHT22;48140;45.486;9.226;2023-04-06T01:45:11;7.30;48.10
62154;DHT22;48140;45.486;9.226;2023-04-06T01:47:36;7.30;48.40
62154;DHT22;48140;45.486;9.226;2023-04-06T01:50:02;7.30;48.80
62154;DHT22;48140;45.486;9.226;2023-04-06T01:52:30;7.30;48.60
62154;DHT22;48140;45.486;9.226;2023-04-06T01:54:56;7.30;48.70
62154;DHT22;48140;45.486;9.226;2023-04-06T01:57:22;7.30;48.40
62154;DHT22;48140;45.486;9.226;2023-04-06T01:59:47;7.30;48.40
62154;DHT22;48140;45.486;9.226;2023-04-06T02:02:13;7.30;48.50
62154;DHT22;48140;45.486;9.226;2023-04-06T02:04:38;7.20;48.80
62154;DHT22;48140;45.486;9.226;2023-04-06T02:07:04;7.20;48.30
62154;DHT22;48140;45.486;9.226;2023-04-06T02:09:30;7.20;48.40
62154;DHT22;48140;45.486;9.226;2023-04-06T02:11:55;7.20;48.30
62154;DHT22;48140;45.486;9.226;2023-04-06T02:14:24;7.20;48.60
62154;DHT22;48140;45.486;9.226;2023-04-06T02:16:51;7.20;48.20
62154;DHT22;48140;45.486;9.226;2023-04-06T02:19:16;7.10;47.90
62154;DHT22;48140;45.486;9.226;2023-04-06T02:21:42;7.10;48.30
62154;DHT22;48140;45.486;9.226;2023-04-06T02:24:08;7.10;48.00
62154;DHT22;48140;45.486;9.226;2023-04-06T02:26:33;7.10;48.10
62154;DHT22;48140;45.486;9.226;2023-04-06T02:28:59;7.00;48.00
62154;DHT22;48140;45.486;9.226;2023-04-06T02:31:24;7.10;48.10
62154;DHT22;48140;45.486;9.226;2023-04-06T02:33:51;7.00;47.70
62154;DHT22;48140;45.486;9.226;2023-04-06T02:36:17;7.00;47.30
62154;DHT22;48140;45.486;9.226;2023-04-06T02:38:42;7.00;47.80
62154;DHT22;48140;45.486;9.226;2023-04-06T02:41:09;6.90;47.90
62154;DHT22;48140;45.486;9.226;2023-04-06T02:43:34;6.90;47.90
62154;DHT22;48140;45.486;9.226;2023-04-06T02:46:00;6.90;47.60
62154;DHT22;48140;45.486;9.226;2023-04-06T02:48:26;6.90;47.90
62154;DHT22;48140;45.486;9.226;2023-04-06T02:50:51;6.80;47.80
62154;DHT22;48140;45.486;9.226;2023-04-06T02:53:17;6.80;47.80
62154;DHT22;48140;45.486;9.226;2023-04-06T02:55:42;6.90;47.80
62154;DHT22;48140;45.486;9.226;2023-04-06T02:58:08;6.80;48.80
62154;DHT22;48140;45.486;9.226;2023-04-06T03:00:36;6.90;47.70
62154;DHT22;48140;45.486;9.226;2023-04-06T03:03:02;6.80;47.40
62154;DHT22;48140;45.486;9.226;2023-04-06T03:05:27;6.80;47.20
62154;DHT22;48140;45.486;9.226;2023-04-06T03:07:53;6.80;47.40
62154;DHT22;48140;45.486;9.226;2023-04-06T03:10:19;6.80;47.10
62154;DHT22;48140;45.486;9.226;2023-04-06T03:12:44;6.80;47.20
62154;DHT22;48140;45.486;9.226;2023-04-06T03:15:10;6.80;47.60
62154;DHT22;48140;45.486;9.226;2023-04-06T03:17:36;6.80;47.30
62154;DHT22;48140;45.486;9.226;2023-04-06T03:20:02;6.70;47.40
62154;DHT22;48140;45.486;9.226;2023-04-06T03:22:29;6.70;47.40
62154;DHT22;48140;45.486;9.226;2023-04-06T03:24:56;6.80;47.30
62154;DHT22;48140;45.486;9.226;2023-04-06T03:27:22;6.80;47.20
62154;DHT22;48140;45.486;9.226;2023-04-06T03:29:47;6.80;47.40
62154;DHT22;48140;45.486;9.226;2023-04-06T03:32:13;6.80;47.40
62154;DHT22;48140;45.486;9.226;2023-04-06T03:34:39;6.80;47.30
62154;DHT22;48140;45.486;9.226;2023-04-06T03:37:05;6.80;47.70
62154;DHT22;48140;45.486;9.226;2023-04-06T03:39:30;6.80;48.00
62154;DHT22;48140;45.486;9.226;2023-04-06T03:41:57;6.70;48.10
62154;DHT22;48140;45.486;9.226;2023-04-06T03:44:22;6.80;48.50
62154;DHT22;48140;45.486;9.226;2023-04-06T03:46:48;6.70;49.00
62154;DHT22;48140;45.486;9.226;2023-04-06T03:49:13;6.80;48.90
62154;DHT22;48140;45.486;9.226;2023-04-06T03:51:39;6.70;48.80
62154;DHT22;48140;45.486;9.226;2023-04-06T03:54:05;6.70;48.80
62154;DHT22;48140;45.486;9.226;2023-04-06T03:56:31;6.70;49.00
62154;DHT22;48140;45.486;9.226;2023-04-06T03:58:56;6.70;49.20
62154;DHT22;48140;45.486;9.226;2023-04-06T04:01:22;6.60;49.40
62154;DHT22;48140;45.486;9.226;2023-04-06T04:03:48;6.60;49.70
62154;DHT22;48140;45.486;9.226;2023-04-06T04:06:13;6.60;49.80
62154;DHT22;48140;45.486;9.226;2023-04-06T04:08:39;6.60;50.10
62154;DHT22;48140;45.486;9.226;2023-04-06T04:11:05;6.60;49.60
62154;DHT22;48140;45.486;9.226;2023-04-06T04:13:30;6.60;50.10
62154;DHT22;48140;45.486;9.226;2023-04-06T04:15:56;6.60;49.80
62154;DHT22;48140;45.486;9.226;2023-04-06T04:18:22;6.60;49.80
62154;DHT22;48140;45.486;9.226;2023-04-06T04:20:47;6.60;50.00
62154;DHT22;48140;45.486;9.226;2023-04-06T04:23:13;6.60;50.40
62154;DHT22;48140;45.486;9.226;2023-04-06T04:25:38;6.50;50.30
62154;DHT22;48140;45.486;9.226;2023-04-06T04:28:04;6.50;50.40
62154;DHT22;48140;45.486;9.226;2023-04-06T04:30:30;6.50;50.70
62154;DHT22;48140;45.486;9.226;2023-04-06T04:32:56;6.60;50.90
62154;DHT22;48140;45.486;9.226;2023-04-06T04:35:21;6.60;50.70
62154;DHT22;48140;45.486;9.226;2023-04-06T04:37:47;6.50;50.80
62154;DHT22;48140;45.486;9.226;2023-04-06T04:40:12;6.50;51.10
62154;DHT22;48140;45.486;9.226;2023-04-06T04:42:38;6.50;51.00
62154;DHT22;48140;45.486;9.226;2023-04-06T04:45:04;6.50;51.70
62154;DHT22;48140;45.486;9.226;2023-04-06T04:47:30;6.50;51.60
62154;DHT22;48140;45.486;9.226;2023-04-06T04:49:55;6.40;52.20
62154;DHT22;48140;45.486;9.226;2023-04-06T04:52:21;6.50;52.80
62154;DHT22;48140;45.486;9.226;2023-04-06T04:54:47;6.40;52.40
62154;DHT22;48140;45.486;9.226;2023-04-06T04:57:13;6.40;52.50
62154;DHT22;48140;45.486;9.226;2023-04-06T04:59:38;6.50;52.00
62154;DHT22;48140;45.486;9.226;2023-04-06T05:02:04;6.50;51.80
62154;DHT22;48140;45.486;9.226;2023-04-06T05:04:30;6.50;51.80
62154;DHT22;48140;45.486;9.226;2023-04-06T05:07:08;6.50;52.20
62154;DHT22;48140;45.486;9.226;2023-04-06T05:09:35;6.60;51.50
62154;DHT22;48140;45.486;9.226;2023-04-06T05:12:01;6.50;51.80
62154;DHT22;48140;45.486;9.226;2023-04-06T05:14:27;6.60;51.50
62154;DHT22;48140;45.486;9.226;2023-04-06T05:16:53;6.60;51.50
62154;DHT22;48140;45.486;9.226;2023-04-06T05:19:19;6.70;52.00
62154;DHT22;48140;45.486;9.226;2023-04-06T05:21:45;6.70;51.40
62154;DHT22;48140;45.486;9.226;2023-04-06T05:24:11;6.80;51.30
62154;DHT22;48140;45.486;9.226;2023-04-06T05:26:37;6.80;51.50
62154;DHT22;48140;45.486;9.226;2023-04-06T05:29:02;6.80;52.20
62154;DHT22;48140;45.486;9.226;2023-04-06T05:31:29;6.80;51.80
62154;DHT22;48140;45.486;9.226;2023-04-06T05:33:55;6.90;51.40
62154;DHT22;48140;45.486;9.226;2023-04-06T05:36:21;6.90;51.60
62154;DHT22;48140;45.486;9.226;2023-04-06T05:38:47;7.00;51.30
62154;DHT22;48140;45.486;9.226;2023-04-06T05:41:13;7.10;51.10
62154;DHT22;48140;45.486;9.226;2023-04-06T05:43:38;7.20;50.70
62154;DHT22;48140;45.486;9.226;2023-04-06T05:46:04;7.20;50.60
62154;DHT22;48140;45.486;9.226;2023-04-06T05:48:29;7.30;50.50
62154;DHT22;48140;45.486;9.226;2023-04-06T05:50:55;7.40;50.20
62154;DHT22;48140;45.486;9.226;2023-04-06T05:53:21;7.50;49.60
62154;DHT22;48140;45.486;9.226;2023-04-06T05:55:47;7.60;48.90
62154;DHT22;48140;45.486;9.226;2023-04-06T05:58:13;7.60;48.50
62154;DHT22;48140;45.486;9.226;2023-04-06T06:00:38;7.70;48.60
62154;DHT22;48140;45.486;9.226;2023-04-06T06:03:04;7.90;47.80
62154;DHT22;48140;45.486;9.226;2023-04-06T06:05:31;7.80;47.10
62154;DHT22;48140;45.486;9.226;2023-04-06T06:07:57;8.00;46.80
62154;DHT22;48140;45.486;9.226;2023-04-06T06:10:22;8.00;46.10
62154;DHT22;48140;45.486;9.226;2023-04-06T06:12:48;8.10;45.60
62154;DHT22;48140;45.486;9.226;2023-04-06T06:15:14;8.20;45.10
62154;DHT22;48140;45.486;9.226;2023-04-06T06:17:40;8.30;44.80
62154;DHT22;48140;45.486;9.226;2023-04-06T06:20:07;8.30;44.10
62154;DHT22;48140;45.486;9.226;2023-04-06T06:22:32;8.40;43.80
62154;DHT22;48140;45.486;9.226;2023-04-06T06:24:58;8.50;43.90
62154;DHT22;48140;45.486;9.226;2023-04-06T06:27:24;8.50;43.30
62154;DHT22;48140;45.486;9.226;2023-04-06T06:29:53;8.60;42.70
62154;DHT22;48140;45.486;9.226;2023-04-06T06:32:18;8.70;42.90
62154;DHT22;48140;45.486;9.226;2023-04-06T06:34:44;8.70;42.50
62154;DHT22;48140;45.486;9.226;2023-04-06T06:37:10;8.80;42.40
62154;DHT22;48140;45.486;9.226;2023-04-06T06:39:35;8.90;41.80
62154;DHT22;48140;45.486;9.226;2023-04-06T06:42:01;9.00;41.80
62154;DHT22;48140;45.486;9.226;2023-04-06T06:44:27;9.00;41.40
62154;DHT22;48140;45.486;9.226;2023-04-06T06:46:53;9.10;41.20
62154;DHT22;48140;45.486;9.226;2023-04-06T06:49:19;9.10;41.30
62154;DHT22;48140;45.486;9.226;2023-04-06T06:51:45;9.20;40.50
62154;DHT22;48140;45.486;9.226;2023-04-06T06:54:12;9.30;40.00
62154;DHT22;48140;45.486;9.226;2023-04-06T06:56:38;9.30;39.40
62154;DHT22;48140;45.486;9.226;2023-04-06T06:59:04;9.40;40.00
62154;DHT22;48140;45.486;9.226;2023-04-06T07:01:32;9.50;39.50
62154;DHT22;48140;45.486;9.226;2023-04-06T07:03:58;9.60;38.80
62154;DHT22;48140;45.486;9.226;2023-04-06T07:06:24;9.70;39.20
62154;DHT22;48140;45.486;9.226;2023-04-06T07:08:50;9.80;39.30
62154;DHT22;48140;45.486;9.226;2023-04-06T07:11:16;9.90;38.00
62154;DHT22;48140;45.486;9.226;2023-04-06T07:13:42;9.90;38.10
62154;DHT22;48140;45.486;9.226;2023-04-06T07:16:08;10.00;36.80
62154;DHT22;48140;45.486;9.226;2023-04-06T07:18:33;10.00;37.00
62154;DHT22;48140;45.486;9.226;2023-04-06T07:20:59;10.00;36.30
62154;DHT22;48140;45.486;9.226;2023-04-06T07:23:25;10.10;36.40
62154;DHT22;48140;45.486;9.226;2023-04-06T07:25:50;10.20;36.70
62154;DHT22;48140;45.486;9.226;2023-04-06T07:28:19;10.30;36.50
62154;DHT22;48140;45.486;9.226;2023-04-06T07:30:44;10.40;36.20
62154;DHT22;48140;45.486;9.226;2023-04-06T07:33:10;10.60;36.00
62154;DHT22;48140;45.486;9.226;2023-04-06T07:35:37;10.60;35.10
62154;DHT22;48140;45.486;9.226;2023-04-06T07:38:03;10.60;35.90
62154;DHT22;48140;45.486;9.226;2023-04-06T07:40:29;10.80;35.30
62154;DHT22;48140;45.486;9.226;2023-04-06T07:42:58;10.60;34.80
62154;DHT22;48140;45.486;9.226;2023-04-06T07:45:26;10.80;40.10
62154;DHT22;48140;45.486;9.226;2023-04-06T07:47:51;11.00;37.60
62154;DHT22;48140;45.486;9.226;2023-04-06T07:50:17;11.10;36.20
62154;DHT22;48140;45.486;9.226;2023-04-06T07:52:43;11.30;36.10
62154;DHT22;48140;45.486;9.226;2023-04-06T07:55:08;11.30;34.80
62154;DHT22;48140;45.486;9.226;2023-04-06T07:57:35;11.30;35.60
62154;DHT22;48140;45.486;9.226;2023-04-06T08:00:01;11.40;35.10
62154;DHT22;48140;45.486;9.226;2023-04-06T08:02:31;11.40;34.10
62154;DHT22;48140;45.486;9.226;2023-04-06T08:04:57;11.40;32.70
62154;DHT22;48140;45.486;9.226;2023-04-06T08:07:23;11.50;33.00
62154;DHT22;48140;45.486;9.226;2023-04-06T08:09:49;11.20;31.10
62154;DHT22;48140;45.486;9.226;2023-04-06T08:12:15;11.20;31.80
62154;DHT22;48140;45.486;9.226;2023-04-06T08:14:41;11.30;32.00
62154;DHT22;48140;45.486;9.226;2023-04-06T08:17:06;11.40;31.90
62154;DHT22;48140;45.486;9.226;2023-04-06T08:19:32;11.50;31.60
62154;DHT22;48140;45.486;9.226;2023-04-06T08:21:58;11.60;31.00
62154;DHT22;48140;45.486;9.226;2023-04-06T08:24:24;11.50;30.90
62154;DHT22;48140;45.486;9.226;2023-04-06T08:26:49;11.70;31.10
62154;DHT22;48140;45.486;9.226;2023-04-06T08:29:16;11.70;30.00
62154;DHT22;48140;45.486;9.226;2023-04-06T08:31:42;11.50;29.90
62154;DHT22;48140;45.486;9.226;2023-04-06T08:34:08;11.50;28.50
62154;DHT22;48140;45.486;9.226;2023-04-06T08:36:33;11.80;29.20
62154;DHT22;48140;45.486;9.226;2023-04-06T08:39:00;12.00;29.40
62154;DHT22;48140;45.486;9.226;2023-04-06T08:41:27;12.30;28.90
62154;DHT22;48140;45.486;9.226;2023-04-06T08:44:01;12.40;28.00
62154;DHT22;48140;45.486;9.226;2023-04-06T08:46:28;12.40;28.50
62154;DHT22;48140;45.486;9.226;2023-04-06T08:49:01;12.70;27.90
62154;DHT22;48140;45.486;9.226;2023-04-06T08:51:27;12.80;28.50
62154;DHT22;48140;45.486;9.226;2023-04-06T08:53:54;12.90;27.80
62154;DHT22;48140;45.486;9.226;2023-04-06T08:56:25;12.60;28.00
62154;DHT22;48140;45.486;9.226;2023-04-06T08:58:52;12.60;29.00
62154;DHT22;48140;45.486;9.226;2023-04-06T09:01:22;12.80;28.50
62154;DHT22;48140;45.486;9.226;2023-04-06T09:03:51;12.60;28.30
62154;DHT22;48140;45.486;9.226;2023-04-06T09:06:18;12.70;28.70
62154;DHT22;48140;45.486;9.226;2023-04-06T09:08:44;12.50;28.50
62154;DHT22;48140;45.486;9.226;2023-04-06T09:11:10;12.30;28.90
62154;DHT22;48140;45.486;9.226;2023-04-06T09:13:53;12.60;29.10
62154;DHT22;48140;45.486;9.226;2023-04-06T09:16:20;12.70;29.20
62154;DHT22;48140;45.486;9.226;2023-04-06T09:18:46;13.10;29.30
62154;DHT22;48140;45.486;9.226;2023-04-06T09:21:17;13.40;28.50
62154;DHT22;48140;45.486;9.226;2023-04-06T09:23:43;13.70;28.70
62154;DHT22;48140;45.486;9.226;2023-04-06T09:26:14;14.00;28.10
62154;DHT22;48140;45.486;9.226;2023-04-06T09:28:45;14.20;28.10
62154;DHT22;48140;45.486;9.226;2023-04-06T09:31:16;14.40;27.60
62154;DHT22;48140;45.486;9.226;2023-04-06T09:33:44;14.60;27.20
62154;DHT22;48140;45.486;9.226;2023-04-06T09:36:11;14.80;26.50
62154;DHT22;48140;45.486;9.226;2023-04-06T09:38:52;14.50;26.90
62154;DHT22;48140;45.486;9.226;2023-04-06T09:41:29;14.40;26.50
62154;DHT22;48140;45.486;9.226;2023-04-06T09:44:06;14.50;26.90
62154;DHT22;48140;45.486;9.226;2023-04-06T09:46:36;14.80;27.00
62154;DHT22;48140;45.486;9.226;2023-04-06T09:49:03;15.10;26.70
62154;DHT22;48140;45.486;9.226;2023-04-06T09:51:33;15.20;26.30
62154;DHT22;48140;45.486;9.226;2023-04-06T09:54:01;15.20;26.70
62154;DHT22;48140;45.486;9.226;2023-04-06T09:56:34;15.10;25.80
62154;DHT22;48140;45.486;9.226;2023-04-06T09:59:08;15.10;25.80
62154;DHT22;48140;45.486;9.226;2023-04-06T10:01:35;14.90;27.70
62154;DHT22;48140;45.486;9.226;2023-04-06T10:05:07;15.40;26.70
62154;DHT22;48140;45.486;9.226;2023-04-06T10:07:02;15.20;26.20
62154;DHT22;48140;45.486;9.226;2023-04-06T10:09:28;15.00;28.30
62154;DHT22;48140;45.486;9.226;2023-04-06T10:12:02;15.20;26.80
62154;DHT22;48140;45.486;9.226;2023-04-06T10:14:28;15.20;26.10
62154;DHT22;48140;45.486;9.226;2023-04-06T10:16:54;15.10;26.30
62154;DHT22;48140;45.486;9.226;2023-04-06T10:19:24;15.30;26.40
62154;DHT22;48140;45.486;9.226;2023-04-06T10:21:54;14.90;26.70
62154;DHT22;48140;45.486;9.226;2023-04-06T10:24:21;15.10;26.50
62154;DHT22;48140;45.486;9.226;2023-04-06T10:27:07;15.40;25.90
62154;DHT22;48140;45.486;9.226;2023-04-06T10:29:48;15.00;25.80
62154;DHT22;48140;45.486;9.226;2023-04-06T10:32:15;15.30;25.80
62154;DHT22;48140;45.486;9.226;2023-04-06T10:34:41;15.50;25.50
62154;DHT22;48140;45.486;9.226;2023-04-06T10:37:16;15.60;25.70
62154;DHT22;48140;45.486;9.226;2023-04-06T10:39:53;16.10;25.60
62154;DHT22;48140;45.486;9.226;2023-04-06T10:42:37;16.20;25.20
62154;DHT22;48140;45.486;9.226;2023-04-06T10:45:07;16.50;24.80
62154;DHT22;48140;45.486;9.226;2023-04-06T10:47:40;16.30;25.00
62154;DHT22;48140;45.486;9.226;2023-04-06T10:50:06;16.00;25.00
62154;DHT22;48140;45.486;9.226;2023-04-06T10:52:32;15.50;25.60
62154;DHT22;48140;45.486;9.226;2023-04-06T10:54:57;15.90;25.20
62154;DHT22;48140;45.486;9.226;2023-04-06T10:57:30;16.20;25.00
62154;DHT22;48140;45.486;9.226;2023-04-06T10:59:57;16.30;24.80
62154;DHT22;48140;45.486;9.226;2023-04-06T11:02:23;16.40;24.70
62154;DHT22;48140;45.486;9.226;2023-04-06T11:04:58;16.10;24.60
62154;DHT22;48140;45.486;9.226;2023-04-06T11:07:27;16.10;25.00
62154;DHT22;48140;45.486;9.226;2023-04-06T11:09:56;16.10;25.10
62154;DHT22;48140;45.486;9.226;2023-04-06T11:12:26;16.70;25.10
62154;DHT22;48140;45.486;9.226;2023-04-06T11:15:00;17.10;24.10
62154;DHT22;48140;45.486;9.226;2023-04-06T11:17:35;17.60;23.80
62154;DHT22;48140;45.486;9.226;2023-04-06T11:20:01;16.50;24.40
62154;DHT22;48140;45.486;9.226;2023-04-06T11:22:28;16.50;24.20
62154;DHT22;48140;45.486;9.226;2023-04-06T11:25:07;16.30;24.60
62154;DHT22;48140;45.486;9.226;2023-04-06T11:27:34;16.50;24.50
62154;DHT22;48140;45.486;9.226;2023-04-06T11:30:00;16.50;24.20
62154;DHT22;48140;45.486;9.226;2023-04-06T11:32:26;16.40;24.80
62154;DHT22;48140;45.486;9.226;2023-04-06T11:34:52;15.90;24.90
62154;DHT22;48140;45.486;9.226;2023-04-06T11:37:18;16.00;25.00
62154;DHT22;48140;45.486;9.226;2023-04-06T11:39:50;16.50;24.60
62154;DHT22;48140;45.486;9.226;2023-04-06T11:42:24;16.90;24.00
62154;DHT22;48140;45.486;9.226;2023-04-06T11:44:51;16.30;25.10
62154;DHT22;48140;45.486;9.226;2023-04-06T11:47:18;16.30;24.50
62154;DHT22;48140;45.486;9.226;2023-04-06T11:49:45;16.30;26.70
62154;DHT22;48140;45.486;9.226;2023-04-06T11:52:18;16.30;24.70
62154;DHT22;48140;45.486;9.226;2023-04-06T11:54:45;16.30;24.50
62154;DHT22;48140;45.486;9.226;2023-04-06T11:57:11;16.30;24.50
62154;DHT22;48140;45.486;9.226;2023-04-06T11:59:37;16.30;24.20
62154;DHT22;48140;45.486;9.226;2023-04-06T12:02:03;16.50;23.90
62154;DHT22;48140;45.486;9.226;2023-04-06T12:04:29;16.20;25.10
62154;DHT22;48140;45.486;9.226;2023-04-06T12:06:55;16.20;25.40
62154;DHT22;48140;45.486;9.226;2023-04-06T12:09:21;16.50;25.30
62154;DHT22;48140;45.486;9.226;2023-04-06T12:11:46;16.50;25.10
62154;DHT22;48140;45.486;9.226;2023-04-06T12:14:13;16.90;24.60
62154;DHT22;48140;45.486;9.226;2023-04-06T12:16:40;17.20;24.70
62154;DHT22;48140;45.486;9.226;2023-04-06T12:19:06;17.80;24.00
62154;DHT22;48140;45.486;9.226;2023-04-06T12:21:32;18.00;24.00
62154;DHT22;48140;45.486;9.226;2023-04-06T12:23:58;18.00;23.60
62154;DHT22;48140;45.486;9.226;2023-04-06T12:26:25;17.80;23.80
62154;DHT22;48140;45.486;9.226;2023-04-06T12:28:51;18.00;23.70
62154;DHT22;48140;45.486;9.226;2023-04-06T12:31:19;18.60;23.40
62154;DHT22;48140;45.486;9.226;2023-04-06T12:33:49;19.20;22.80
62154;DHT22;48140;45.486;9.226;2023-04-06T12:36:18;19.70;22.70
62154;DHT22;48140;45.486;9.226;2023-04-06T12:38:45;19.40;22.00
62154;DHT22;48140;45.486;9.226;2023-04-06T12:41:11;19.20;22.60
62154;DHT22;48140;45.486;9.226;2023-04-06T12:43:37;19.70;22.90
62154;DHT22;48140;45.486;9.226;2023-04-06T12:46:03;19.80;22.50
62154;DHT22;48140;45.486;9.226;2023-04-06T12:48:29;20.10;21.70
62154;DHT22;48140;45.486;9.226;2023-04-06T12:50:58;20.40;22.50
62154;DHT22;48140;45.486;9.226;2023-04-06T12:53:24;20.20;21.80
62154;DHT22;48140;45.486;9.226;2023-04-06T12:55:51;19.80;21.90
62154;DHT22;48140;45.486;9.226;2023-04-06T12:58:17;19.40;22.10
62154;DHT22;48140;45.486;9.226;2023-04-06T13:00:43;19.70;22.50
62154;DHT22;48140;45.486;9.226;2023-04-06T13:03:08;20.00;22.20
62154;DHT22;48140;45.486;9.226;2023-04-06T13:05:34;19.80;21.50
62154;DHT22;48140;45.486;9.226;2023-04-06T13:08:00;19.20;21.70
62154;DHT22;48140;45.486;9.226;2023-04-06T13:10:26;18.30;22.80
62154;DHT22;48140;45.486;9.226;2023-04-06T13:12:52;18.00;23.60
62154;DHT22;48140;45.486;9.226;2023-04-06T13:15:18;17.50;23.90
62154;DHT22;48140;45.486;9.226;2023-04-06T13:17:43;17.70;24.50
62154;DHT22;48140;45.486;9.226;2023-04-06T13:20:09;18.10;23.40
62154;DHT22;48140;45.486;9.226;2023-04-06T13:22:35;18.10;23.90
62154;DHT22;48140;45.486;9.226;2023-04-06T13:25:01;18.10;24.00
62154;DHT22;48140;45.486;9.226;2023-04-06T13:27:27;17.60;24.70
62154;DHT22;48140;45.486;9.226;2023-04-06T13:29:55;17.60;25.10
62154;DHT22;48140;45.486;9.226;2023-04-06T13:32:21;17.90;24.90
62154;DHT22;48140;45.486;9.226;2023-04-06T13:34:47;17.90;24.50
62154;DHT22;48140;45.486;9.226;2023-04-06T13:37:14;18.10;24.20
62154;DHT22;48140;45.486;9.226;2023-04-06T13:39:40;17.80;24.70
62154;DHT22;48140;45.486;9.226;2023-04-06T13:42:06;18.00;24.30
62154;DHT22;48140;45.486;9.226;2023-04-06T13:44:32;18.20;24.10
62154;DHT22;48140;45.486;9.226;2023-04-06T13:46:58;17.50;24.00
62154;DHT22;48140;45.486;9.226;2023-04-06T13:49:24;17.30;24.70
62154;DHT22;48140;45.486;9.226;2023-04-06T13:51:49;17.70;24.60
62154;DHT22;48140;45.486;9.226;2023-04-06T13:54:15;18.50;23.90
62154;DHT22;48140;45.486;9.226;2023-04-06T13:56:41;18.40;23.70
62154;DHT22;48140;45.486;9.226;2023-04-06T13:59:06;17.80;24.40
62154;DHT22;48140;45.486;9.226;2023-04-06T14:01:32;18.00;24.80
62154;DHT22;48140;45.486;9.226;2023-04-06T14:03:58;17.60;24.70
62154;DHT22;48140;45.486;9.226;2023-04-06T14:06:23;17.00;25.20
62154;DHT22;48140;45.486;9.226;2023-04-06T14:08:50;16.60;25.60
62154;DHT22;48140;45.486;9.226;2023-04-06T14:11:15;16.30;25.60
62154;DHT22;48140;45.486;9.226;2023-04-06T14:13:41;16.60;25.90
62154;DHT22;48140;45.486;9.226;2023-04-06T14:16:07;16.70;24.60
62154;DHT22;48140;45.486;9.226;2023-04-06T14:18:33;16.50;24.30
62154;DHT22;48140;45.486;9.226;2023-04-06T14:21:00;16.50;24.40
62154;DHT22;48140;45.486;9.226;2023-04-06T14:23:27;16.80;24.50
62154;DHT22;48140;45.486;9.226;2023-04-06T14:26:07;16.90;24.50
62154;DHT22;48140;45.486;9.226;2023-04-06T14:28:34;16.90;25.30
62154;DHT22;48140;45.486;9.226;2023-04-06T14:31:01;16.80;24.50
62154;DHT22;48140;45.486;9.226;2023-04-06T14:33:28;16.50;24.90
62154;DHT22;48140;45.486;9.226;2023-04-06T14:35:55;16.90;24.70
62154;DHT22;48140;45.486;9.226;2023-04-06T14:38:21;17.50;24.60
62154;DHT22;48140;45.486;9.226;2023-04-06T14:40:48;17.70;23.90
62154;DHT22;48140;45.486;9.226;2023-04-06T14:43:14;17.90;23.90
62154;DHT22;48140;45.486;9.226;2023-04-06T14:45:40;17.90;23.70
62154;DHT22;48140;45.486;9.226;2023-04-06T14:48:06;18.10;23.70
62154;DHT22;48140;45.486;9.226;2023-04-06T14:50:32;18.10;23.60
62154;DHT22;48140;45.486;9.226;2023-04-06T14:52:59;17.50;24.00
62154;DHT22;48140;45.486;9.226;2023-04-06T14:55:26;17.20;24.10
62154;DHT22;48140;45.486;9.226;2023-04-06T14:57:51;17.50;24.10
62154;DHT22;48140;45.486;9.226;2023-04-06T15:00:17;17.50;23.80
62154;DHT22;48140;45.486;9.226;2023-04-06T15:02:43;17.10;24.00
62154;DHT22;48140;45.486;9.226;2023-04-06T15:05:09;17.20;24.10
62154;DHT22;48140;45.486;9.226;2023-04-06T15:07:34;17.70;24.00
62154;DHT22;48140;45.486;9.226;2023-04-06T15:10:00;17.60;23.70
62154;DHT22;48140;45.486;9.226;2023-04-06T15:12:26;18.00;23.70
62154;DHT22;48140;45.486;9.226;2023-04-06T15:14:51;18.30;23.00
62154;DHT22;48140;45.486;9.226;2023-04-06T15:17:18;18.50;22.80
62154;DHT22;48140;45.486;9.226;2023-04-06T15:19:44;18.50;23.00
62154;DHT22;48140;45.486;9.226;2023-04-06T15:22:10;18.50;22.50
62154;DHT22;48140;45.486;9.226;2023-04-06T15:24:36;17.90;22.90
62154;DHT22;48140;45.486;9.226;2023-04-06T15:27:02;17.70;23.10
62154;DHT22;48140;45.486;9.226;2023-04-06T15:29:29;17.80;23.20
62154;DHT22;48140;45.486;9.226;2023-04-06T15:31:55;18.10;23.30
62154;DHT22;48140;45.486;9.226;2023-04-06T15:34:21;18.30;22.80